Time;durP1;ratioP1;P1;durP2;ratioP2;P2;SDS_P1;SDS_P2;PMS_P1;PMS_P2;Temp;Humidity;BMP_temperature;BMP_pressure;BME280_temperature;BME280_humidity;BME280_pressure;Samples;Min_cycle;Max_cycle;Signal;HPM_P1;HPM_P2
2022/04/19 00:01:16;;;;;;;4.57;3.38;;;;;;;5.02;100.00;97049.16;6229294;22;20005;-85
2022/04/19 00:03:41;;;;;;;3.38;2.30;;;;;;;4.95;100.00;97044.22;6229649;22;20016;-85
2022/04/19 00:06:07;;;;;;;3.20;2.20;;;;;;;4.95;99.73;97033.63;6228902;22;20009;-85
2022/04/19 00:08:34;;;;;;;3.25;2.30;;;;;;;5.00;100.00;97040.44;6228660;23;20088;-85
2022/04/19 00:11:01;;;;;;;2.80;2.03;;;;;;;5.03;100.00;97032.31;6228848;22;20012;-85
2022/04/19 00:13:28;;;;;;;6.15;2.95;;;;;;;5.08;100.00;97034.75;6236643;22;20009;-85
2022/04/19 00:15:55;;;;;;;4.78;2.97;;;;;;;5.07;100.00;97036.56;6228566;22;20441;-86
2022/04/19 00:18:22;;;;;;;5.00;3.40;;;;;;;5.10;100.00;97032.91;6252696;22;20013;-84
2022/04/19 00:20:47;;;;;;;5.85;3.10;;;;;;;5.14;100.00;97037.94;6253484;22;20009;-85
2022/04/19 00:23:13;;;;;;;5.10;2.42;;;;;;;5.16;98.66;97028.16;6252971;22;20102;-85
2022/04/19 00:25:43;;;;;;;3.38;2.30;;;;;;;5.27;96.68;97025.81;6228266;22;20014;-85
2022/04/19 00:28:10;;;;;;;3.28;2.00;;;;;;;5.31;95.87;97038.00;6228408;22;20094;-86
2022/04/19 00:30:36;;;;;;;4.47;2.35;;;;;;;5.25;96.20;97033.00;6228531;22;20345;-85
2022/04/19 00:33:02;;;;;;;3.60;2.28;;;;;;;5.34;96.26;97027.25;6228721;23;20002;-85
2022/04/19 00:35:28;;;;;;;3.28;1.67;;;;;;;5.23;90.93;97018.94;6227749;23;20009;-85
2022/04/19 00:37:53;;;;;;;1.38;1.08;;;;;;;5.16;89.35;97016.69;6228355;22;20388;-85
2022/04/19 00:40:19;;;;;;;1.40;1.23;;;;;;;5.13;90.69;97027.44;6227970;23;20005;-85
2022/04/19 00:42:46;;;;;;;1.75;1.30;;;;;;;5.05;88.77;97014.56;6227850;23;20013;-84
2022/04/19 00:45:12;;;;;;;1.30;1.20;;;;;;;5.00;89.56;97021.00;6227407;22;20108;-85
2022/04/19 00:47:38;;;;;;;1.92;1.13;;;;;;;5.01;88.68;97023.59;6227861;22;20006;-85
2022/04/19 00:50:04;;;;;;;1.65;1.33;;;;;;;4.91;91.10;97017.88;6227562;22;20032;-84
2022/04/19 00:52:34;;;;;;;2.58;1.38;;;;;;;4.95;91.34;97023.91;6226972;23;20017;-85
2022/04/19 00:55:01;;;;;;;1.45;1.27;;;;;;;4.90;92.21;97026.75;6227664;23;20009;-85
2022/04/19 00:57:27;;;;;;;1.88;1.48;;;;;;;4.87;93.53;97015.44;6253176;22;20057;-87
2022/04/19 00:59:54;;;;;;;2.28;1.42;;;;;;;4.87;93.48;97016.31;6228425;22;20005;-86
2022/04/19 01:02:20;;;;;;;2.88;1.80;;;;;;;4.93;94.58;97021.31;6228941;22;20010;-85
2022/04/19 01:04:46;;;;;;;2.47;1.90;;;;;;;4.88;94.00;97012.72;6229334;22;20092;-86
2022/04/19 01:07:12;;;;;;;3.05;1.45;;;;;;;4.88;93.61;97012.72;6228772;23;20055;-86
2022/04/19 01:09:38;;;;;;;1.40;1.10;;;;;;;4.84;92.77;97013.81;6229968;22;20005;-85
2022/04/19 01:14:49;;;;;;;2.03;1.65;;;;;;;4.90;94.20;97010.00;6240427;22;20353;-86
2022/04/19 01:17:15;;;;;;;3.05;2.20;;;;;;;4.81;96.26;97006.00;6229615;23;20009;-86
2022/04/19 01:19:42;;;;;;;1.40;1.10;;;;;;;4.85;95.27;96999.63;6230076;22;20010;-85
2022/04/19 01:22:12;;;;;;;1.10;1.00;;;;;;;4.85;95.29;97002.28;6233337;23;20009;-86
2022/04/19 01:24:39;;;;;;;1.90;1.40;;;;;;;4.74;95.16;96993.97;6250169;22;20005;-85
2022/04/19 01:27:05;;;;;;;2.33;1.50;;;;;;;4.80;95.97;97000.75;6230488;23;20002;-84
2022/04/19 01:29:33;;;;;;;1.92;1.50;;;;;;;4.76;96.52;97005.38;6229656;23;20013;-84
2022/04/19 01:31:58;;;;;;;1.40;1.30;;;;;;;4.72;97.63;97005.56;6254978;22;20104;-84
2022/04/19 01:34:24;;;;;;;2.28;1.63;;;;;;;4.62;100.00;96988.41;6230403;22;20033;-85
2022/04/19 01:36:49;;;;;;;2.75;1.95;;;;;;;4.69;100.00;96995.13;6254568;22;20013;-85
2022/04/19 01:39:15;;;;;;;1.92;1.60;;;;;;;4.63;100.00;96996.28;6228929;23;20446;-84
2022/04/19 01:41:40;;;;;;;1.80;1.38;;;;;;;4.58;100.00;97005.38;6229388;22;20006;-85
2022/04/19 01:44:07;;;;;;;3.58;1.58;;;;;;;4.53;100.00;97004.72;6230679;22;20009;-84
2022/04/19 01:46:33;;;;;;;1.70;1.40;;;;;;;4.60;100.00;97004.38;6230011;23;20084;-84
2022/04/19 01:48:58;;;;;;;1.40;1.30;;;;;;;4.60;100.00;96999.09;6229219;22;20468;-84
2022/04/19 01:51:24;;;;;;;1.40;1.30;;;;;;;4.68;100.00;96996.91;6229766;23;20009;-84
2022/04/19 01:53:51;;;;;;;1.95;1.08;;;;;;;4.64;100.00;96998.00;6230430;23;20006;-85
2022/04/19 01:56:17;;;;;;;1.17;1.08;;;;;;;4.58;100.00;97002.75;6229241;23;20507;-85
2022/04/19 01:58:43;;;;;;;1.10;1.00;;;;;;;4.54;100.00;97002.03;6229527;23;20008;-85
2022/04/19 02:01:09;;;;;;;2.45;1.52;;;;;;;4.64;100.00;97003.31;6230718;23;20010;-85
2022/04/19 02:03:35;;;;;;;1.55;1.20;;;;;;;4.60;100.00;97006.16;6229893;23;20094;-85
2022/04/19 02:06:08;;;;;;;1.27;1.17;;;;;;;4.65;99.99;97010.31;6230299;23;20009;-86
2022/04/19 02:08:34;;;;;;;1.70;1.13;;;;;;;4.61;99.67;97003.47;6230080;22;20001;-84
2022/04/19 02:11:00;;;;;;;1.08;0.82;;;;;;;4.66;99.91;97006.72;6255421;22;20028;-85
2022/04/19 02:13:26;;;;;;;1.70;1.33;;;;;;;4.70;100.00;97003.03;6229651;22;20010;-85
2022/04/19 02:15:52;;;;;;;2.03;1.30;;;;;;;4.74;100.00;96996.63;6229362;23;20390;-86
2022/04/19 02:18:21;;;;;;;1.60;1.40;;;;;;;4.72;100.00;96989.69;6252858;22;20005;-86
2022/04/19 02:20:47;;;;;;;1.88;1.42;;;;;;;4.79;100.00;97007.88;6229055;23;20017;-86
2022/04/19 02:23:13;;;;;;;1.70;1.25;;;;;;;4.74;100.00;97004.56;6229312;22;20010;-85
2022/04/19 02:25:39;;;;;;;1.38;1.08;;;;;;;4.78;100.00;97011.44;6229261;23;20083;-85
2022/04/19 02:28:06;;;;;;;1.67;1.30;;;;;;;4.74;100.00;97009.00;6229027;23;20456;-85
2022/04/19 02:30:32;;;;;;;1.20;1.10;;;;;;;4.77;100.00;97020.31;6233739;22;20005;-84
2022/04/19 02:32:58;;;;;;;1.23;1.08;;;;;;;4.73;100.00;97002.00;6233601;22;20005;-85
2022/04/19 02:35:31;;;;;;;5.45;2.53;;;;;;;4.80;100.00;97008.72;6257937;22;20013;-87
2022/04/19 02:37:58;;;;;;;7.10;2.83;;;;;;;4.67;100.00;96997.88;6233632;22;20060;-85
2022/04/19 02:40:25;;;;;;;2.78;1.58;;;;;;;4.71;100.00;97001.19;6256599;22;20448;-85
2022/04/19 02:42:54;;;;;;;3.42;2.13;;;;;;;4.69;100.00;97009.25;6230400;22;20005;-85
2022/04/19 02:45:21;;;;;;;3.42;2.03;;;;;;;4.59;100.00;96999.13;6253153;22;20008;-85
2022/04/19 02:48:02;;;;;;;2.58;1.70;;;;;;;4.63;100.00;97000.72;6229733;23;20017;-85
2022/04/19 02:50:28;;;;;;;2.50;1.42;;;;;;;4.59;100.00;97001.78;6230476;22;20022;-85
2022/04/19 02:52:54;;;;;;;2.90;1.88;;;;;;;4.67;100.00;97016.41;6229122;23;20012;-86
2022/04/19 02:55:19;;;;;;;1.40;1.30;;;;;;;4.68;100.00;96991.63;6229033;23;20354;-85
2022/04/19 02:57:45;;;;;;;1.80;1.50;;;;;;;4.74;100.00;97004.56;6229647;22;20032;-85
2022/04/19 03:00:12;;;;;;;2.75;1.60;;;;;;;4.77;100.00;97014.16;6230911;22;20013;-85
2022/04/19 03:02:37;;;;;;;3.65;2.33;;;;;;;4.74;100.00;97020.47;6230340;22;20016;-85
2022/04/19 03:05:03;;;;;;;53.35;22.13;;;;;;;4.71;100.00;97015.31;6229420;22;20112;-85
2022/04/19 03:07:29;;;;;;;11.00;5.28;;;;;;;4.57;100.00;97027.50;6228515;23;20013;-85
2022/04/19 03:09:56;;;;;;;14.93;7.50;;;;;;;4.51;100.00;97022.47;6230152;22;20044;-85
2022/04/19 03:12:21;;;;;;;7.18;4.00;;;;;;;4.47;100.00;97026.19;6255228;22;20011;-86
2022/04/19 03:14:47;;;;;;;9.88;4.20;;;;;;;4.32;100.00;97015.38;6254318;22;20073;-86
2022/04/19 03:17:12;;;;;;;12.50;3.30;;;;;;;4.35;100.00;97031.13;6229333;23;20009;-86
2022/04/19 03:19:38;;;;;;;5.88;3.17;;;;;;;4.37;100.00;97041.63;6230516;23;20078;-85
2022/04/19 03:22:06;;;;;;;7.97;4.05;;;;;;;4.44;100.00;97037.78;6229738;23;20085;-86
2022/04/19 03:29:52;;;;;;;6.93;3.33;;;;;;;4.43;100.00;97038.72;6241845;22;20066;-74
2022/04/19 03:32:19;;;;;;;5.13;3.10;;;;;;;4.44;100.00;97032.50;6225949;23;20409;-75
2022/04/19 03:34:46;;;;;;;7.32;3.97;;;;;;;4.53;100.00;97053.25;6226819;22;20009;-74
2022/04/19 03:37:12;;;;;;;11.90;6.35;;;;;;;4.39;100.00;97039.81;6226665;22;20001;-74
2022/04/19 03:39:37;;;;;;;8.93;5.72;;;;;;;4.46;100.00;97041.22;6251287;22;20010;-74
2022/04/19 03:42:03;;;;;;;8.10;5.13;;;;;;;4.46;100.00;97040.38;6226066;23;20009;-76
2022/04/19 03:44:31;;;;;;;8.75;5.80;;;;;;;4.45;100.00;97044.81;6251655;22;20025;-74
2022/04/19 03:47:09;;;;;;;5.95;3.67;;;;;;;4.46;100.00;97043.84;6226991;22;20084;-75
2022/04/19 03:49:36;;;;;;;8.45;3.97;;;;;;;4.41;100.00;97048.53;6241352;22;20017;-75
2022/04/19 03:52:02;;;;;;;5.82;3.85;;;;;;;4.46;100.00;97046.50;6251728;22;20010;-75
2022/04/19 03:54:28;;;;;;;6.55;3.97;;;;;;;4.50;100.00;97058.69;6251568;22;20472;-75
2022/04/19 03:56:54;;;;;;;9.88;5.18;;;;;;;4.48;100.00;97054.41;6227053;22;20021;-74
2022/04/19 03:59:20;;;;;;;5.45;3.28;;;;;;;4.37;100.00;97068.09;6225727;23;20037;-73
2022/04/19 04:01:45;;;;;;;2.80;2.03;;;;;;;4.23;100.00;97062.59;6252013;22;20009;-73
2022/04/19 04:04:11;;;;;;;4.28;2.63;;;;;;;4.02;100.00;97051.19;6251821;22;20445;-74
2022/04/19 04:06:37;;;;;;;5.00;2.75;;;;;;;4.03;100.00;97060.81;6251223;22;20005;-73
2022/04/19 04:09:03;;;;;;;5.28;2.83;;;;;;;4.00;100.00;97062.75;6251478;22;20002;-73
2022/04/19 04:11:29;;;;;;;4.60;2.55;;;;;;;3.94;100.00;97063.88;6226057;23;20005;-74
2022/04/19 04:13:54;;;;;;;6.53;3.40;;;;;;;3.98;100.00;97064.59;6149287;23;20009;-74
2022/04/19 04:16:20;;;;;;;3.92;2.42;;;;;;;3.89;100.00;97057.06;6252017;22;20074;-75
2022/04/19 04:18:46;;;;;;;3.70;2.50;;;;;;;4.00;100.00;97068.88;6251434;22;20090;-74
2022/04/19 04:21:12;;;;;;;3.40;2.20;;;;;;;4.10;100.00;97064.06;6149154;23;20005;-74
2022/04/19 04:23:37;;;;;;;4.32;2.15;;;;;;;4.07;100.00;97070.34;6200941;22;20024;-78
2022/04/19 04:26:03;;;;;;;5.30;2.38;;;;;;;3.98;100.00;97073.41;6149109;23;20005;-74
2022/04/19 04:28:28;;;;;;;4.95;2.58;;;;;;;4.00;100.00;97070.69;6251844;22;20004;-74
2022/04/19 04:30:54;;;;;;;6.82;3.92;;;;;;;4.15;100.00;97072.66;6148907;23;20005;-74
2022/04/19 04:33:21;;;;;;;8.98;3.70;;;;;;;4.14;100.00;97077.09;6251310;22;20061;-74
2022/04/19 04:35:47;;;;;;;8.98;4.30;;;;;;;4.21;100.00;97077.69;6250004;22;20005;-74
2022/04/19 04:38:12;;;;;;;11.02;5.68;;;;;;;4.26;100.00;97080.97;6226068;22;20540;-74
2022/04/19 04:40:38;;;;;;;11.65;5.07;;;;;;;4.33;100.00;97078.00;6148679;23;20005;-74
2022/04/19 04:43:04;;;;;;;13.20;6.43;;;;;;;4.46;100.00;97085.38;6149735;23;20009;-74
2022/04/19 04:45:30;;;;;;;10.80;4.93;;;;;;;4.56;100.00;97092.84;6252498;22;20013;-74
2022/04/19 04:50:40;;;;;;;8.05;4.70;;;;;;;4.54;100.00;97097.34;6320710;22;20026;-74
2022/04/19 04:53:05;;;;;;;4.72;3.17;;;;;;;4.50;100.00;97092.25;6310115;22;20006;-74
2022/04/19 04:55:31;;;;;;;6.55;3.85;;;;;;;4.50;100.00;97093.09;6284987;22;20435;-73
2022/04/19 04:57:59;;;;;;;6.65;4.05;;;;;;;4.56;100.00;97089.31;6310312;22;20159;-74
2022/04/19 05:00:27;;;;;;;7.30;4.28;;;;;;;4.61;100.00;97093.50;6285036;22;20064;-73
2022/04/19 05:02:54;;;;;;;5.03;3.45;;;;;;;4.72;100.00;97095.63;6310825;22;20003;-75
2022/04/19 05:05:20;;;;;;;8.35;5.47;;;;;;;4.72;100.00;97096.50;6310611;22;20002;-75
2022/04/19 05:07:46;;;;;;;23.75;18.15;;;;;;;4.75;100.00;97096.38;6310132;22;20003;-74
2022/04/19 05:10:11;;;;;;;17.52;12.32;;;;;;;4.63;100.00;97102.22;6337923;22;19999;-74
2022/04/19 05:12:37;;;;;;;13.18;6.72;;;;;;;4.67;100.00;97102.94;6337868;22;20002;-74
2022/04/19 05:15:04;;;;;;;5.40;2.95;;;;;;;4.71;100.00;97091.25;6310109;22;20009;-74
2022/04/19 05:17:29;;;;;;;4.18;2.72;;;;;;;4.83;100.00;97102.16;6284834;22;20443;-74
2022/04/19 05:19:55;;;;;;;4.93;3.60;;;;;;;4.95;100.00;97108.69;6284117;22;20037;-74
2022/04/19 05:22:21;;;;;;;32.88;22.08;;;;;;;5.06;100.00;97108.19;6310154;22;19999;-75
2022/04/19 05:24:47;;;;;;;11.52;8.02;;;;;;;5.18;100.00;97112.88;6310694;22;20002;-74
2022/04/19 05:27:12;;;;;;;9.75;5.55;;;;;;;5.29;100.00;97108.78;6284086;22;20034;-74
2022/04/19 05:29:38;;;;;;;12.43;6.32;;;;;;;5.42;100.00;97114.34;6310372;22;19995;-74
2022/04/19 05:32:04;;;;;;;7.07;4.55;;;;;;;5.58;100.00;97110.03;6337229;22;20005;-75
2022/04/19 05:34:30;;;;;;;6.25;4.63;;;;;;;5.79;100.00;97119.56;6284426;22;20346;-73
2022/04/19 05:36:55;;;;;;;7.53;4.85;;;;;;;6.02;100.00;97118.47;6310012;22;20003;-73
2022/04/19 05:39:21;;;;;;;11.18;7.50;;;;;;;6.26;97.80;97116.34;6309771;22;20003;-73
2022/04/19 05:41:47;;;;;;;15.10;7.88;;;;;;;6.48;96.31;97109.84;6337397;22;20009;-73
2022/04/19 05:44:12;;;;;;;11.27;6.70;;;;;;;6.40;97.94;97116.47;6309650;22;20442;-73
2022/04/19 05:46:38;;;;;;;17.13;10.15;;;;;;;6.21;99.58;97110.41;6284238;22;20003;-74
2022/04/19 05:49:06;;;;;;;21.58;11.43;;;;;;;6.15;98.54;97118.69;6309816;22;20455;-73
2022/04/19 05:51:33;;;;;;;15.70;8.27;;;;;;;6.10;100.00;97121.56;6285000;22;20488;-73
2022/04/19 05:53:58;;;;;;;12.27;7.43;;;;;;;6.25;97.70;97128.75;6283564;22;20006;-74
2022/04/19 05:56:24;;;;;;;31.33;18.88;;;;;;;6.46;97.49;97116.19;6284157;22;20520;-73
2022/04/19 05:58:49;;;;;;;19.15;10.02;;;;;;;6.58;96.77;97120.84;6284153;22;20028;-72
2022/04/19 06:01:15;;;;;;;21.48;11.70;;;;;;;6.65;94.87;97122.22;6309563;22;20075;-74
2022/04/19 06:06:25;;;;;;;14.30;8.02;;;;;;;6.64;94.09;97119.66;6314343;22;20021;-74
2022/04/19 06:08:51;;;;;;;19.58;11.85;;;;;;;6.73;94.48;97135.09;6284038;22;20003;-74
2022/04/19 06:11:17;;;;;;;10.13;6.32;;;;;;;6.56;93.81;97125.34;6309708;22;20026;-74
2022/04/19 06:13:42;;;;;;;10.82;7.30;;;;;;;6.89;94.43;97128.84;6309679;22;20374;-73
2022/04/19 06:16:08;;;;;;;13.02;7.90;;;;;;;7.01;92.98;97122.88;6337058;22;20007;-73
2022/04/19 06:18:34;;;;;;;13.52;7.15;;;;;;;7.04;92.66;97136.00;6283768;22;20031;-74
2022/04/19 06:21:00;;;;;;;11.38;7.45;;;;;;;7.45;91.54;97131.06;6309788;22;19998;-74
2022/04/19 06:23:26;;;;;;;14.50;9.07;;;;;;;7.82;89.92;97127.16;6309476;22;20091;-75
2022/04/19 06:25:52;;;;;;;11.90;7.30;;;;;;;7.94;86.93;97118.44;6309775;22;20442;-74
2022/04/19 06:28:17;;;;;;;16.83;8.70;;;;;;;8.27;85.98;97125.41;6336739;22;20009;-74
2022/04/19 06:30:43;;;;;;;11.18;7.38;;;;;;;8.68;82.42;97126.47;6337060;22;19998;-73
2022/04/19 06:33:09;;;;;;;13.30;7.22;;;;;;;8.80;81.20;97131.03;6309382;22;20359;-74
2022/04/19 06:35:34;;;;;;;12.45;7.68;;;;;;;8.68;79.44;97121.13;6309390;22;20296;-74
2022/04/19 06:38:00;;;;;;;12.90;7.28;;;;;;;9.04;77.83;97118.88;6283353;22;20140;-74
2022/04/19 06:40:26;;;;;;;12.98;7.20;;;;;;;9.89;73.03;97118.66;6283421;22;20033;-74
2022/04/19 06:42:51;;;;;;;11.63;8.15;;;;;;;10.75;69.95;97122.63;6309419;22;19998;-74
2022/04/19 06:45:17;;;;;;;13.40;8.00;;;;;;;11.61;65.77;97119.06;6309349;22;20445;-74
2022/04/19 06:47:44;;;;;;;12.50;8.20;;;;;;;10.75;65.12;97127.97;6309776;22;20458;-73
2022/04/19 06:50:10;;;;;;;15.60;8.98;;;;;;;10.03;70.46;97136.47;6251843;22;20018;-75
2022/04/19 06:52:36;;;;;;;7.53;5.85;;;;;;;9.80;69.26;97140.66;6252564;22;20002;-74
2022/04/19 06:55:02;;;;;;;7.40;5.32;;;;;;;8.53;73.27;97148.72;6252173;22;20054;-74
2022/04/19 06:57:28;;;;;;;5.60;4.70;;;;;;;7.95;77.78;97136.16;6251527;22;20029;-74
2022/04/19 06:59:53;;;;;;;5.95;4.28;;;;;;;7.43;83.50;97150.72;6251879;22;20025;-73
2022/04/19 07:02:19;;;;;;;7.70;5.07;;;;;;;6.82;90.61;97150.56;6225986;23;20013;-73
2022/04/19 07:04:44;;;;;;;12.85;6.88;;;;;;;6.86;97.35;97152.94;6251890;22;20357;-74
2022/04/19 07:07:10;;;;;;;9.02;5.85;;;;;;;6.74;97.90;97150.94;6251694;22;20442;-74
2022/04/19 07:09:35;;;;;;;15.27;9.43;;;;;;;6.37;97.58;97143.19;6149436;22;19997;-73
2022/04/19 07:12:01;;;;;;;15.20;8.10;;;;;;;6.53;100.00;97154.75;6148878;22;20480;-74
2022/04/19 07:14:27;;;;;;;9.40;5.80;;;;;;;6.30;99.26;97152.44;6251814;22;20434;-74
2022/04/19 07:16:53;;;;;;;10.80;5.68;;;;;;;6.02;99.30;97157.41;6149435;22;20025;-76
2022/04/19 07:19:19;;;;;;;10.35;6.13;;;;;;;5.93;100.00;97159.59;6226516;22;20358;-74
2022/04/19 07:27:12;;;;;;;11.35;5.80;;;;;;;6.24;100.00;97160.72;6236552;22;20068;-83
2022/04/19 07:29:38;;;;;;;6.80;4.20;;;;;;;6.11;100.00;97163.13;6226417;23;20006;-88
2022/04/19 07:32:04;;;;;;;5.07;3.38;;;;;;;6.05;97.48;97158.13;6227862;22;20013;-87
2022/04/19 07:34:29;;;;;;;4.28;2.95;;;;;;;5.90;99.25;97158.91;6227962;23;20170;-87
2022/04/19 07:36:57;;;;;;;6.10;4.10;;;;;;;5.76;100.00;97156.88;6228253;23;20001;-87
2022/04/19 07:39:22;;;;;;;24.80;15.73;;;;;;;5.58;100.00;97157.78;6228205;22;20100;-85
2022/04/19 07:41:48;;;;;;;9.07;5.10;;;;;;;5.33;100.00;97152.78;6227261;23;20045;-87
2022/04/19 07:44:18;;;;;;;10.45;6.03;;;;;;;5.00;100.00;97148.22;6252111;22;20441;-87
2022/04/19 07:46:44;;;;;;;9.68;5.65;;;;;;;5.02;100.00;97152.50;6128275;22;20055;-85
2022/04/19 07:49:10;;;;;;;5.10;3.67;;;;;;;5.00;100.00;97153.50;6227304;22;20017;-85
2022/04/19 07:51:35;;;;;;;11.02;6.55;;;;;;;5.23;100.00;97150.66;6227191;23;20005;-86
2022/04/19 07:54:01;;;;;;;11.35;6.68;;;;;;;5.37;100.00;97145.56;6226341;22;20013;-86
2022/04/19 07:56:27;;;;;;;11.02;5.68;;;;;;;5.71;100.00;97140.34;6227118;22;20012;-85
2022/04/19 07:58:53;;;;;;;9.02;6.18;;;;;;;5.96;99.40;97142.66;6227190;22;20009;-85
2022/04/19 08:01:19;;;;;;;9.13;5.80;;;;;;;6.46;99.75;97142.75;6227015;22;20085;-84
2022/04/19 08:03:45;;;;;;;10.93;6.00;;;;;;;6.75;94.01;97135.88;6227321;22;20084;-84
2022/04/19 08:06:11;;;;;;;8.77;5.28;;;;;;;7.17;87.86;97151.31;6226796;23;20040;-84
2022/04/19 08:08:37;;;;;;;7.45;5.22;;;;;;;7.55;87.22;97142.03;6227469;23;20445;-84
2022/04/19 08:11:03;;;;;;;8.55;5.57;;;;;;;8.67;82.72;97135.44;6226528;23;20092;-84
2022/04/19 08:13:29;;;;;;;3.70;2.63;;;;;;;9.76;76.57;97144.47;6227072;22;20094;-87
2022/04/19 08:15:55;;;;;;;5.38;3.30;;;;;;;11.06;69.00;97130.22;6226365;23;20453;-86
2022/04/19 08:18:21;;;;;;;3.45;2.63;;;;;;;12.57;59.36;97114.56;6229854;23;20032;-87
2022/04/19 08:20:47;;;;;;;2.97;2.50;;;;;;;13.91;54.74;97108.25;6227677;22;20335;-88
2022/04/19 08:23:13;;;;;;;3.17;2.80;;;;;;;13.92;51.45;97102.75;6228203;23;20096;-88
2022/04/19 08:25:40;;;;;;;11.05;3.30;;;;;;;14.71;53.12;97101.47;6228487;23;20016;-87
2022/04/19 08:28:06;;;;;;;3.78;3.13;;;;;;;15.19;49.00;97096.38;6228619;23;20017;-87
2022/04/19 08:30:32;;;;;;;6.25;4.10;;;;;;;15.67;50.95;97100.16;6228493;23;20004;-86
2022/04/19 08:32:58;;;;;;;4.63;3.25;;;;;;;16.77;46.01;97080.94;6227903;22;20028;-88
2022/04/19 08:35:24;;;;;;;4.35;2.90;;;;;;;16.54;45.59;97076.84;6227545;23;20434;-86
2022/04/19 08:37:49;;;;;;;2.90;2.50;;;;;;;16.01;45.90;97076.38;6228400;23;20356;-87
2022/04/19 08:40:16;;;;;;;6.20;4.47;;;;;;;18.60;41.57;97059.25;6228505;23;20063;-87
2022/04/19 08:42:45;;;;;;;8.25;2.42;;;;;;;19.46;41.40;97069.19;6228997;22;20006;-87
2022/04/19 08:45:15;;;;;;;2.65;2.15;;;;;;;20.07;37.77;97034.63;6228423;22;20040;-87
2022/04/19 08:47:45;;;;;;;5.03;3.28;;;;;;;22.05;33.84;97037.47;6227075;22;20063;-88
2022/04/19 08:50:17;;;;;;;4.00;3.35;;;;;;;22.37;32.37;97025.50;6299994;22;20027;-87
2022/04/19 08:52:43;;;;;;;16.92;3.40;;;;;;;22.10;33.54;97031.47;6285982;22;20391;-87
2022/04/19 08:57:54;;;;;;;5.05;2.95;;;;;;;23.21;32.50;97019.84;6317525;22;20009;-88
2022/04/19 09:00:23;;;;;;;4.75;3.65;;;;;;;19.95;36.88;97048.53;6291537;22;20006;-87
2022/04/19 09:02:50;;;;;;;3.60;2.80;;;;;;;18.12;40.06;97042.50;6289584;22;20091;-87
2022/04/19 09:05:21;;;;;;;4.20;3.65;;;;;;;17.49;43.50;97071.31;6286520;22;20428;-87
2022/04/19 09:07:52;;;;;;;6.03;3.35;;;;;;;16.08;44.34;97082.91;6287627;22;20029;-87
2022/04/19 09:10:31;;;;;;;3.72;2.75;;;;;;;13.65;49.30;97098.78;6284794;22;20474;-86
2022/04/19 09:13:02;;;;;;;5.57;2.85;;;;;;;12.77;51.59;97113.88;6284272;22;20512;-86
2022/04/19 09:15:44;;;;;;;3.72;2.80;;;;;;;11.64;53.85;97113.50;6283934;22;20407;-85
2022/04/19 09:18:26;;;;;;;5.88;3.70;;;;;;;10.95;57.32;97126.59;6282491;22;20067;-85
2022/04/19 09:20:52;;;;;;;3.35;2.78;;;;;;;10.17;61.05;97137.28;6308533;22;20405;-85
2022/04/19 09:23:18;;;;;;;11.38;4.13;;;;;;;10.14;63.88;97152.69;6308488;22;20002;-84
2022/04/19 09:25:44;;;;;;;5.60;3.92;;;;;;;9.97;61.74;97139.53;6283061;22;20006;-83
2022/04/19 09:28:23;;;;;;;22.95;15.40;;;;;;;10.19;61.59;97132.69;6309626;22;20291;-84
2022/04/19 09:30:57;;;;;;;7.40;4.60;;;;;;;12.21;56.48;97115.53;6310944;22;20063;-85
2022/04/19 09:33:25;;;;;;;5.78;3.92;;;;;;;14.41;51.80;97096.00;6285608;22;20009;-87
2022/04/19 09:35:54;;;;;;;5.68;3.97;;;;;;;13.48;51.10;97100.16;6285211;22;20461;-86
2022/04/19 09:38:36;;;;;;;7.38;3.97;;;;;;;14.38;50.09;97099.81;6310714;22;20034;-87
2022/04/19 09:41:02;;;;;;;8.38;4.28;;;;;;;15.28;51.25;97092.88;6284522;22;20002;-86
2022/04/19 09:43:28;;;;;;;3.83;2.58;;;;;;;15.71;49.79;97085.41;6284241;22;20332;-87
2022/04/19 09:45:59;;;;;;;3.03;2.17;;;;;;;17.18;44.94;97074.28;6285641;22;20060;-86
2022/04/19 09:48:30;;;;;;;8.13;3.33;;;;;;;17.96;41.82;97064.00;6285276;22;20447;-86
2022/04/19 09:51:12;;;;;;;4.30;2.20;;;;;;;18.76;38.75;97045.84;6285983;22;20343;-87
2022/04/19 09:53:48;;;;;;;3.17;2.50;;;;;;;18.65;39.67;97046.06;6286430;22;20009;-87
2022/04/19 09:56:21;;;;;;;5.40;3.25;;;;;;;16.48;45.50;97079.22;6285906;22;20006;-87
2022/04/19 09:58:48;;;;;;;5.28;3.15;;;;;;;15.54;47.00;97072.56;6285392;22;20002;-86
2022/04/19 10:09:37;;;;;;;6.45;3.10;;;;;;;14.70;45.29;97063.91;6315300;22;20025;-87
2022/04/19 10:12:08;;;;;;;5.32;2.78;;;;;;;17.06;43.63;97061.09;6285106;22;20447;-87
2022/04/19 10:14:35;;;;;;;2.55;2.35;;;;;;;18.05;39.75;97036.84;6285356;22;20007;-87
2022/04/19 10:17:02;;;;;;;5.53;2.92;;;;;;;17.28;40.20;97039.13;6311236;22;19999;-87
2022/04/19 10:19:28;;;;;;;5.03;2.50;;;;;;;18.83;38.05;97025.19;6285439;22;20520;-87
2022/04/19 10:21:54;;;;;;;8.80;4.63;;;;;;;20.80;34.63;97014.66;6285462;22;20014;-87
2022/04/19 10:24:21;;;;;;;5.05;3.20;;;;;;;22.11;33.88;97011.38;6285337;22;20007;-87
2022/04/19 10:26:51;;;;;;;3.88;3.38;;;;;;;21.16;35.30;97017.03;6288429;22;20018;-87
2022/04/19 10:29:28;;;;;;;3.58;2.72;;;;;;;22.03;32.54;97006.81;6286000;22;19999;-86
2022/04/19 10:31:58;;;;;;;12.90;7.90;;;;;;;22.20;30.51;96977.59;6285725;22;20007;-88
2022/04/19 10:34:33;;;;;;;5.25;3.92;;;;;;;21.77;30.82;96976.31;6312935;22;20037;-88
2022/04/19 10:37:26;;;;;;;4.30;3.20;;;;;;;22.58;30.42;96990.22;6286745;22;20083;-86
2022/04/19 10:39:58;;;;;;;4.03;3.63;;;;;;;23.21;28.59;96981.66;6285911;22;20442;-88
2022/04/19 10:42:34;;;;;;;4.80;3.58;;;;;;;23.48;28.73;96980.16;6311711;22;20006;-87
2022/04/19 10:45:11;;;;;;;4.72;3.90;;;;;;;23.92;28.24;96974.66;6285307;22;20393;-87
2022/04/19 10:47:57;;;;;;;19.90;13.27;;;;;;;23.97;27.19;96969.44;6311699;22;20499;-87
2022/04/19 10:50:29;;;;;;;4.20;3.42;;;;;;;23.18;28.92;96970.25;6310734;22;20312;-87
2022/04/19 10:52:59;;;;;;;10.13;7.20;;;;;;;20.71;31.10;96983.06;6339103;22;20026;-88
2022/04/19 10:55:27;;;;;;;2.75;2.55;;;;;;;19.28;33.12;96988.88;6285044;22;20454;-88
2022/04/19 10:58:18;;;;;;;7.90;4.90;;;;;;;19.50;33.78;96988.31;6284890;22;20010;-88
2022/04/19 11:00:56;;;;;;;3.47;3.00;;;;;;;18.91;34.88;96992.75;6310527;22;20006;-87
2022/04/19 11:03:37;;;;;;;19.23;3.42;;;;;;;17.64;37.77;97013.06;6284675;22;20391;-85
2022/04/19 11:06:04;;;;;;;16.67;3.78;;;;;;;16.41;40.86;97013.31;6310542;22;20003;-86
2022/04/19 11:08:37;;;;;;;6.68;2.88;;;;;;;15.67;40.45;97027.34;6284171;22;20080;-87
2022/04/19 11:11:03;;;;;;;4.95;2.85;;;;;;;15.25;42.34;97033.88;6284579;22;20014;-88
2022/04/19 11:13:35;;;;;;;6.15;3.40;;;;;;;14.90;43.58;97044.19;6310334;22;20061;-87
2022/04/19 11:16:05;;;;;;;5.53;3.38;;;;;;;14.37;47.62;97055.03;6309637;22;19999;-87
2022/04/19 11:18:32;;;;;;;3.50;2.90;;;;;;;14.34;44.99;97035.59;6309807;22;20037;-87
2022/04/19 11:21:05;;;;;;;16.00;3.13;;;;;;;13.73;46.48;97056.00;6284836;22;20015;-86
2022/04/19 11:23:48;;;;;;;11.20;3.22;;;;;;;12.77;49.15;97058.38;6284250;22;20019;-86
2022/04/19 11:26:26;;;;;;;20.20;3.95;;;;;;;12.49;50.07;97072.22;6284813;22;20010;-88
2022/04/19 11:29:10;;;;;;;15.52;2.90;;;;;;;11.42;53.34;97089.25;6310623;22;20427;-88
2022/04/19 11:31:36;;;;;;;4.30;3.10;;;;;;;10.81;53.25;97092.75;6337618;22;20355;-88
2022/04/19 11:34:15;;;;;;;5.10;3.17;;;;;;;10.51;55.87;97095.75;6310106;22;20006;-88
2022/04/19 11:36:41;;;;;;;14.15;4.20;;;;;;;10.49;54.38;97096.84;6284830;22;20093;-87
2022/04/19 11:39:07;;;;;;;6.60;3.10;;;;;;;10.49;52.68;97116.38;6284142;22;20003;-86
2022/04/19 11:47:10;;;;;;;3.58;2.63;;;;;;;8.07;68.76;97198.50;6280529;22;20003;-86
2022/04/19 11:49:36;;;;;;;7.18;4.30;;;;;;;7.24;78.56;97205.88;6278548;22;20018;-86
2022/04/19 11:52:08;;;;;;;15.00;6.30;;;;;;;7.13;86.51;97189.66;6279376;22;20070;-86
2022/04/19 11:54:33;;;;;;;16.08;6.40;;;;;;;6.62;91.31;97191.47;6278650;22;20009;-86
2022/04/19 11:57:04;;;;;;;11.73;7.10;;;;;;;6.37;96.94;97201.63;6278110;22;20031;-87
2022/04/19 11:59:31;;;;;;;9.35;5.68;;;;;;;6.11;95.71;97197.63;6252421;22;20011;-86
2022/04/19 12:01:57;;;;;;;11.05;6.95;;;;;;;6.04;98.78;97192.69;6279180;22;20003;-86
2022/04/19 12:04:23;;;;;;;4.47;2.10;;;;;;;5.94;100.00;97197.59;6278794;22;20384;-86
2022/04/19 12:07:02;;;;;;;0.10;0.10;;;;;;;5.95;100.00;97200.19;6278110;22;20022;-85
2022/04/19 12:09:29;;;;;;;0.52;0.40;;;;;;;5.99;100.00;97192.94;6253901;22;20163;-86
2022/04/19 12:11:55;;;;;;;0.47;0.38;;;;;;;5.74;100.00;97190.59;6252685;22;20469;-86